sensor_id;sensor_type;location;lat;lon;timestamp;P1;durP1;ratioP1;P2;durP2;ratioP2
803;SDS011;25687;49.976;8.240;2023-07-29T00:01:48;2.37;;;2.17;;
803;SDS011;25687;49.976;8.240;2023-07-29T00:04:14;3.00;;;2.37;;
803;SDS011;25687;49.976;8.240;2023-07-29T00:06:39;2.83;;;2.63;;
803;SDS011;25687;49.976;8.240;2023-07-29T00:09:05;3.33;;;2.37;;
803;SDS011;25687;49.976;8.240;2023-07-29T00:11:30;2.60;;;2.33;;
803;SDS011;25687;49.976;8.240;2023-07-29T00:13:57;3.23;;;2.40;;
803;SDS011;25687;49.976;8.240;2023-07-29T00:16:22;4.67;;;2.27;;
803;SDS011;25687;49.976;8.240;2023-07-29T00:18:48;5.57;;;2.63;;
803;SDS011;25687;49.976;8.240;2023-07-29T00:21:14;3.97;;;2.57;;
803;SDS011;25687;49.976;8.240;2023-07-29T00:23:39;3.57;;;2.40;;
803;SDS011;25687;49.976;8.240;2023-07-29T00:26:04;2.90;;;2.03;;
803;SDS011;25687;49.976;8.240;2023-07-29T00:28:30;3.47;;;2.63;;
803;SDS011;25687;49.976;8.240;2023-07-29T00:30:55;3.83;;;2.50;;
803;SDS011;25687;49.976;8.240;2023-07-29T00:33:20;2.57;;;2.37;;
803;SDS011;25687;49.976;8.240;2023-07-29T00:35:46;2.80;;;2.57;;
803;SDS011;25687;49.976;8.240;2023-07-29T00:38:11;4.07;;;2.53;;
803;SDS011;25687;49.976;8.240;2023-07-29T00:40:36;2.90;;;2.70;;
803;SDS011;25687;49.976;8.240;2023-07-29T00:43:02;2.97;;;2.73;;
803;SDS011;25687;49.976;8.240;2023-07-29T00:45:28;4.40;;;2.60;;
803;SDS011;25687;49.976;8.240;2023-07-29T00:47:54;4.17;;;2.57;;
803;SDS011;25687;49.976;8.240;2023-07-29T00:50:19;2.80;;;2.50;;
803;SDS011;25687;49.976;8.240;2023-07-29T00:52:45;4.60;;;2.87;;
803;SDS011;25687;49.976;8.240;2023-07-29T00:55:10;3.60;;;2.83;;
803;SDS011;25687;49.976;8.240;2023-07-29T00:57:36;3.27;;;2.97;;
803;SDS011;25687;49.976;8.240;2023-07-29T01:00:02;2.83;;;2.63;;
803;SDS011;25687;49.976;8.240;2023-07-29T01:02:29;6.10;;;3.20;;
803;SDS011;25687;49.976;8.240;2023-07-29T01:04:55;3.53;;;3.23;;
803;SDS011;25687;49.976;8.240;2023-07-29T01:07:24;4.60;;;2.77;;
803;SDS011;25687;49.976;8.240;2023-07-29T01:10:14;5.00;;;3.57;;
803;SDS011;25687;49.976;8.240;2023-07-29T01:13:10;3.97;;;3.37;;
803;SDS011;25687;49.976;8.240;2023-07-29T01:15:58;4.53;;;3.70;;
803;SDS011;25687;49.976;8.240;2023-07-29T01:18:32;4.57;;;3.47;;
803;SDS011;25687;49.976;8.240;2023-07-29T01:21:04;5.37;;;3.87;;
803;SDS011;25687;49.976;8.240;2023-07-29T01:23:32;4.43;;;3.37;;
803;SDS011;25687;49.976;8.240;2023-07-29T01:25:59;5.93;;;3.90;;
803;SDS011;25687;49.976;8.240;2023-07-29T01:28:25;6.30;;;4.07;;
803;SDS011;25687;49.976;8.240;2023-07-29T01:30:52;5.77;;;3.70;;
803;SDS011;25687;49.976;8.240;2023-07-29T01:33:26;5.47;;;3.87;;
803;SDS011;25687;49.976;8.240;2023-07-29T01:35:57;4.47;;;4.03;;
803;SDS011;25687;49.976;8.240;2023-07-29T01:38:30;5.33;;;4.60;;
803;SDS011;25687;49.976;8.240;2023-07-29T01:41:02;5.80;;;4.20;;
803;SDS011;25687;49.976;8.240;2023-07-29T01:43:29;4.77;;;4.33;;
803;SDS011;25687;49.976;8.240;2023-07-29T01:45:55;12.60;;;4.20;;
803;SDS011;25687;49.976;8.240;2023-07-29T01:48:20;7.93;;;4.80;;
803;SDS011;25687;49.976;8.240;2023-07-29T01:50:46;5.00;;;4.50;;
803;SDS011;25687;49.976;8.240;2023-07-29T01:53:12;7.67;;;4.43;;
803;SDS011;25687;49.976;8.240;2023-07-29T01:55:37;6.23;;;4.77;;
803;SDS011;25687;49.976;8.240;2023-07-29T01:58:03;4.90;;;4.60;;
803;SDS011;25687;49.976;8.240;2023-07-29T02:00:28;6.17;;;5.00;;
803;SDS011;25687;49.976;8.240;2023-07-29T02:02:53;6.93;;;4.70;;
803;SDS011;25687;49.976;8.240;2023-07-29T02:05:19;9.03;;;4.27;;
803;SDS011;25687;49.976;8.240;2023-07-29T02:07:44;5.17;;;3.97;;
803;SDS011;25687;49.976;8.240;2023-07-29T02:10:09;8.23;;;3.70;;
803;SDS011;25687;49.976;8.240;2023-07-29T02:12:34;4.20;;;3.83;;
803;SDS011;25687;49.976;8.240;2023-07-29T02:15:00;5.37;;;4.60;;
803;SDS011;25687;49.976;8.240;2023-07-29T02:17:25;5.43;;;4.50;;
803;SDS011;25687;49.976;8.240;2023-07-29T02:19:51;4.60;;;4.20;;
803;SDS011;25687;49.976;8.240;2023-07-29T02:22:16;7.57;;;4.20;;
803;SDS011;25687;49.976;8.240;2023-07-29T02:24:42;6.53;;;3.73;;
803;SDS011;25687;49.976;8.240;2023-07-29T02:27:08;5.83;;;4.20;;
803;SDS011;25687;49.976;8.240;2023-07-29T02:29:33;6.03;;;4.83;;
803;SDS011;25687;49.976;8.240;2023-07-29T02:31:59;8.97;;;4.57;;
803;SDS011;25687;49.976;8.240;2023-07-29T02:34:25;6.83;;;5.07;;
803;SDS011;25687;49.976;8.240;2023-07-29T02:36:50;5.60;;;5.10;;
803;SDS011;25687;49.976;8.240;2023-07-29T02:39:15;5.80;;;5.23;;
803;SDS011;25687;49.976;8.240;2023-07-29T02:41:41;6.13;;;4.80;;
803;SDS011;25687;49.976;8.240;2023-07-29T02:44:06;5.17;;;4.67;;
803;SDS011;25687;49.976;8.240;2023-07-29T02:46:32;7.67;;;5.00;;
803;SDS011;25687;49.976;8.240;2023-07-29T02:48:57;5.57;;;5.07;;
803;SDS011;25687;49.976;8.240;2023-07-29T02:51:22;6.10;;;4.87;;
803;SDS011;25687;49.976;8.240;2023-07-29T02:53:48;6.70;;;5.07;;
803;SDS011;25687;49.976;8.240;2023-07-29T02:56:13;7.80;;;5.10;;
803;SDS011;25687;49.976;8.240;2023-07-29T02:58:38;5.63;;;5.13;;
803;SDS011;25687;49.976;8.240;2023-07-29T03:01:04;6.43;;;5.13;;
803;SDS011;25687;49.976;8.240;2023-07-29T03:03:31;6.97;;;6.03;;
803;SDS011;25687;49.976;8.240;2023-07-29T03:06:01;6.70;;;6.00;;
803;SDS011;25687;49.976;8.240;2023-07-29T03:08:28;6.83;;;5.43;;
803;SDS011;25687;49.976;8.240;2023-07-29T03:10:53;9.97;;;5.93;;
803;SDS011;25687;49.976;8.240;2023-07-29T03:13:19;8.30;;;5.57;;
803;SDS011;25687;49.976;8.240;2023-07-29T03:15:44;6.13;;;5.43;;
803;SDS011;25687;49.976;8.240;2023-07-29T03:18:10;6.50;;;5.60;;
803;SDS011;25687;49.976;8.240;2023-07-29T03:20:35;5.63;;;5.17;;
803;SDS011;25687;49.976;8.240;2023-07-29T03:23:00;5.30;;;4.80;;
803;SDS011;25687;49.976;8.240;2023-07-29T03:25:26;6.40;;;5.33;;
803;SDS011;25687;49.976;8.240;2023-07-29T03:27:51;5.37;;;4.90;;
803;SDS011;25687;49.976;8.240;2023-07-29T03:30:19;5.53;;;5.00;;
803;SDS011;25687;49.976;8.240;2023-07-29T03:32:46;6.53;;;5.03;;
803;SDS011;25687;49.976;8.240;2023-07-29T03:35:11;7.53;;;4.93;;
803;SDS011;25687;49.976;8.240;2023-07-29T03:37:36;6.50;;;5.07;;
803;SDS011;25687;49.976;8.240;2023-07-29T03:40:02;6.60;;;4.63;;
803;SDS011;25687;49.976;8.240;2023-07-29T03:42:28;5.40;;;4.90;;
803;SDS011;25687;49.976;8.240;2023-07-29T03:44:53;5.90;;;5.30;;
803;SDS011;25687;49.976;8.240;2023-07-29T03:47:18;10.10;;;5.33;;
803;SDS011;25687;49.976;8.240;2023-07-29T03:49:43;6.70;;;5.10;;
803;SDS011;25687;49.976;8.240;2023-07-29T03:52:09;6.00;;;5.03;;
803;SDS011;25687;49.976;8.240;2023-07-29T03:54:35;6.73;;;5.60;;
803;SDS011;25687;49.976;8.240;2023-07-29T03:57:00;9.47;;;6.17;;
803;SDS011;25687;49.976;8.240;2023-07-29T03:59:25;5.63;;;5.17;;
803;SDS011;25687;49.976;8.240;2023-07-29T04:01:50;9.00;;;4.90;;
803;SDS011;25687;49.976;8.240;2023-07-29T04:04:16;6.00;;;4.87;;
803;SDS011;25687;49.976;8.240;2023-07-29T04:06:41;6.13;;;4.97;;
803;SDS011;25687;49.976;8.240;2023-07-29T04:09:06;6.93;;;6.10;;
803;SDS011;25687;49.976;8.240;2023-07-29T04:11:32;6.70;;;6.10;;
803;SDS011;25687;49.976;8.240;2023-07-29T04:13:58;7.10;;;6.40;;
803;SDS011;25687;49.976;8.240;2023-07-29T04:16:23;6.77;;;6.17;;
803;SDS011;25687;49.976;8.240;2023-07-29T04:18:48;7.90;;;6.23;;
803;SDS011;25687;49.976;8.240;2023-07-29T04:21:14;7.13;;;6.30;;
803;SDS011;25687;49.976;8.240;2023-07-29T04:23:39;6.40;;;5.80;;
803;SDS011;25687;49.976;8.240;2023-07-29T04:26:05;7.30;;;6.57;;
803;SDS011;25687;49.976;8.240;2023-07-29T04:28:30;6.70;;;6.00;;
803;SDS011;25687;49.976;8.240;2023-07-29T04:30:55;7.57;;;5.93;;
803;SDS011;25687;49.976;8.240;2023-07-29T04:33:21;14.87;;;7.00;;
803;SDS011;25687;49.976;8.240;2023-07-29T04:35:46;8.57;;;6.30;;
803;SDS011;25687;49.976;8.240;2023-07-29T04:38:11;7.23;;;6.57;;
803;SDS011;25687;49.976;8.240;2023-07-29T04:40:36;7.00;;;6.30;;
803;SDS011;25687;49.976;8.240;2023-07-29T04:43:02;6.47;;;5.97;;
803;SDS011;25687;49.976;8.240;2023-07-29T04:45:28;6.70;;;5.87;;
803;SDS011;25687;49.976;8.240;2023-07-29T04:47:54;7.73;;;6.77;;
803;SDS011;25687;49.976;8.240;2023-07-29T04:50:19;7.10;;;6.40;;
803;SDS011;25687;49.976;8.240;2023-07-29T04:52:45;6.60;;;6.10;;
803;SDS011;25687;49.976;8.240;2023-07-29T04:55:10;7.03;;;6.43;;
803;SDS011;25687;49.976;8.240;2023-07-29T04:57:35;8.10;;;6.70;;
803;SDS011;25687;49.976;8.240;2023-07-29T05:00:01;11.60;;;6.77;;
803;SDS011;25687;49.976;8.240;2023-07-29T05:02:27;7.27;;;6.20;;
803;SDS011;25687;49.976;8.240;2023-07-29T05:04:53;6.30;;;5.70;;
803;SDS011;25687;49.976;8.240;2023-07-29T05:07:18;6.23;;;5.73;;
803;SDS011;25687;49.976;8.240;2023-07-29T05:09:43;5.87;;;5.03;;
803;SDS011;25687;49.976;8.240;2023-07-29T05:12:09;5.33;;;4.93;;
803;SDS011;25687;49.976;8.240;2023-07-29T05:14:34;6.07;;;5.57;;
803;SDS011;25687;49.976;8.240;2023-07-29T05:16:59;5.30;;;4.90;;
803;SDS011;25687;49.976;8.240;2023-07-29T05:19:25;9.43;;;5.37;;
803;SDS011;25687;49.976;8.240;2023-07-29T05:21:51;7.70;;;5.57;;
803;SDS011;25687;49.976;8.240;2023-07-29T05:24:16;5.87;;;4.87;;
803;SDS011;25687;49.976;8.240;2023-07-29T05:26:41;4.53;;;4.20;;
803;SDS011;25687;49.976;8.240;2023-07-29T05:29:06;4.90;;;4.50;;
803;SDS011;25687;49.976;8.240;2023-07-29T05:31:32;6.87;;;4.43;;
803;SDS011;25687;49.976;8.240;2023-07-29T05:33:57;4.43;;;3.90;;
803;SDS011;25687;49.976;8.240;2023-07-29T05:36:23;5.10;;;4.70;;
803;SDS011;25687;49.976;8.240;2023-07-29T05:38:48;5.07;;;4.17;;
803;SDS011;25687;49.976;8.240;2023-07-29T05:41:13;3.63;;;3.33;;
803;SDS011;25687;49.976;8.240;2023-07-29T05:43:38;3.90;;;3.60;;
803;SDS011;25687;49.976;8.240;2023-07-29T05:46:04;3.73;;;3.20;;
803;SDS011;25687;49.976;8.240;2023-07-29T05:48:29;3.57;;;3.27;;
803;SDS011;25687;49.976;8.240;2023-07-29T05:50:54;4.23;;;3.47;;
803;SDS011;25687;49.976;8.240;2023-07-29T05:53:19;6.10;;;3.90;;
803;SDS011;25687;49.976;8.240;2023-07-29T05:55:45;19.77;;;6.63;;
803;SDS011;25687;49.976;8.240;2023-07-29T05:58:10;6.63;;;4.27;;
803;SDS011;25687;49.976;8.240;2023-07-29T06:00:35;10.07;;;4.60;;
803;SDS011;25687;49.976;8.240;2023-07-29T06:03:01;6.77;;;4.70;;
803;SDS011;25687;49.976;8.240;2023-07-29T06:05:26;4.47;;;2.90;;
803;SDS011;25687;49.976;8.240;2023-07-29T06:07:51;2.73;;;2.47;;
803;SDS011;25687;49.976;8.240;2023-07-29T06:10:17;2.80;;;2.57;;
803;SDS011;25687;49.976;8.240;2023-07-29T06:12:45;6.47;;;2.50;;
803;SDS011;25687;49.976;8.240;2023-07-29T06:15:11;2.53;;;2.07;;
803;SDS011;25687;49.976;8.240;2023-07-29T06:17:37;4.37;;;1.97;;
803;SDS011;25687;49.976;8.240;2023-07-29T06:20:03;2.37;;;2.17;;
803;SDS011;25687;49.976;8.240;2023-07-29T06:22:28;4.50;;;2.00;;
803;SDS011;25687;49.976;8.240;2023-07-29T06:24:53;3.07;;;2.17;;
803;SDS011;25687;49.976;8.240;2023-07-29T06:27:19;2.87;;;2.30;;
803;SDS011;25687;49.976;8.240;2023-07-29T06:29:44;4.73;;;2.77;;
803;SDS011;25687;49.976;8.240;2023-07-29T06:32:09;5.57;;;3.30;;
803;SDS011;25687;49.976;8.240;2023-07-29T06:34:34;6.83;;;3.70;;
803;SDS011;25687;49.976;8.240;2023-07-29T06:37:00;5.87;;;4.20;;
803;SDS011;25687;49.976;8.240;2023-07-29T06:39:25;6.37;;;4.63;;
803;SDS011;25687;49.976;8.240;2023-07-29T06:41:50;5.67;;;4.70;;
803;SDS011;25687;49.976;8.240;2023-07-29T06:44:15;6.23;;;5.63;;
803;SDS011;25687;49.976;8.240;2023-07-29T06:46:41;8.47;;;5.20;;
803;SDS011;25687;49.976;8.240;2023-07-29T06:49:06;5.73;;;5.10;;
803;SDS011;25687;49.976;8.240;2023-07-29T06:51:31;5.30;;;4.80;;
803;SDS011;25687;49.976;8.240;2023-07-29T06:53:59;12.33;;;6.00;;
803;SDS011;25687;49.976;8.240;2023-07-29T06:56:25;6.80;;;5.63;;
803;SDS011;25687;49.976;8.240;2023-07-29T06:58:50;7.60;;;5.23;;
803;SDS011;25687;49.976;8.240;2023-07-29T07:01:16;6.87;;;5.30;;
803;SDS011;25687;49.976;8.240;2023-07-29T07:03:41;9.00;;;5.10;;
803;SDS011;25687;49.976;8.240;2023-07-29T07:06:06;5.40;;;4.90;;
803;SDS011;25687;49.976;8.240;2023-07-29T07:08:32;5.93;;;5.30;;
803;SDS011;25687;49.976;8.240;2023-07-29T07:10:57;6.13;;;5.27;;
803;SDS011;25687;49.976;8.240;2023-07-29T07:13:22;6.20;;;5.60;;
803;SDS011;25687;49.976;8.240;2023-07-29T07:15:48;7.53;;;5.27;;
803;SDS011;25687;49.976;8.240;2023-07-29T07:18:13;6.20;;;5.60;;
803;SDS011;25687;49.976;8.240;2023-07-29T07:20:38;6.17;;;5.57;;
803;SDS011;25687;49.976;8.240;2023-07-29T07:23:03;8.90;;;5.60;;
803;SDS011;25687;49.976;8.240;2023-07-29T07:25:30;6.73;;;5.40;;
803;SDS011;25687;49.976;8.240;2023-07-29T07:27:56;4.93;;;4.43;;
803;SDS011;25687;49.976;8.240;2023-07-29T07:30:21;4.77;;;4.37;;
803;SDS011;25687;49.976;8.240;2023-07-29T07:32:46;4.20;;;3.83;;
803;SDS011;25687;49.976;8.240;2023-07-29T07:35:11;5.67;;;4.07;;
803;SDS011;25687;49.976;8.240;2023-07-29T07:37:37;3.80;;;3.40;;
803;SDS011;25687;49.976;8.240;2023-07-29T07:40:03;5.77;;;3.37;;
803;SDS011;25687;49.976;8.240;2023-07-29T07:42:28;4.87;;;3.47;;
803;SDS011;25687;49.976;8.240;2023-07-29T07:44:54;4.07;;;3.67;;
803;SDS011;25687;49.976;8.240;2023-07-29T07:47:19;3.80;;;3.50;;
803;SDS011;25687;49.976;8.240;2023-07-29T07:49:44;3.93;;;3.50;;
803;SDS011;25687;49.976;8.240;2023-07-29T07:52:09;5.63;;;3.10;;
803;SDS011;25687;49.976;8.240;2023-07-29T07:54:35;4.67;;;3.30;;
803;SDS011;25687;49.976;8.240;2023-07-29T07:57:00;5.43;;;3.03;;
803;SDS011;25687;49.976;8.240;2023-07-29T07:59:25;3.67;;;2.50;;
803;SDS011;25687;49.976;8.240;2023-07-29T08:01:50;3.43;;;2.77;;
803;SDS011;25687;49.976;8.240;2023-07-29T08:04:17;2.20;;;2.10;;
803;SDS011;25687;49.976;8.240;2023-07-29T08:06:42;7.43;;;1.80;;
803;SDS011;25687;49.976;8.240;2023-07-29T08:09:07;1.90;;;1.50;;
803;SDS011;25687;49.976;8.240;2023-07-29T08:11:33;4.25;;;1.65;;
803;SDS011;25687;49.976;8.240;2023-07-29T08:13:58;3.55;;;1.70;;
803;SDS011;25687;49.976;8.240;2023-07-29T08:16:24;2.67;;;1.52;;
803;SDS011;25687;49.976;8.240;2023-07-29T08:18:49;2.47;;;1.60;;
803;SDS011;25687;49.976;8.240;2023-07-29T08:21:14;3.35;;;1.52;;
803;SDS011;25687;49.976;8.240;2023-07-29T08:23:39;3.08;;;1.20;;
803;SDS011;25687;49.976;8.240;2023-07-29T08:26:05;1.70;;;0.88;;
803;SDS011;25687;49.976;8.240;2023-07-29T08:28:34;2.17;;;0.95;;
803;SDS011;25687;49.976;8.240;2023-07-29T08:31:02;3.15;;;0.85;;
803;SDS011;25687;49.976;8.240;2023-07-29T08:33:27;2.35;;;0.90;;
803;SDS011;25687;49.976;8.240;2023-07-29T08:35:53;2.28;;;0.98;;
803;SDS011;25687;49.976;8.240;2023-07-29T08:38:19;1.90;;;0.80;;
803;SDS011;25687;49.976;8.240;2023-07-29T08:43:43;2.10;;;0.95;;
803;SDS011;25687;49.976;8.240;2023-07-29T08:46:15;1.20;;;1.10;;
803;SDS011;25687;49.976;8.240;2023-07-29T08:48:42;1.38;;;0.90;;
803;SDS011;25687;49.976;8.240;2023-07-29T08:51:08;3.22;;;0.90;;
803;SDS011;25687;49.976;8.240;2023-07-29T08:53:35;2.08;;;0.85;;
803;SDS011;25687;49.976;8.240;2023-07-29T08:56:01;1.73;;;0.73;;
803;SDS011;25687;49.976;8.240;2023-07-29T08:58:27;1.52;;;0.77;;
803;SDS011;25687;49.976;8.240;2023-07-29T09:00:54;2.63;;;0.93;;
803;SDS011;25687;49.976;8.240;2023-07-29T09:03:19;1.13;;;1.02;;
803;SDS011;25687;49.976;8.240;2023-07-29T09:05:45;1.63;;;0.90;;
803;SDS011;25687;49.976;8.240;2023-07-29T09:08:11;1.45;;;0.93;;
803;SDS011;25687;49.976;8.240;2023-07-29T09:10:37;1.40;;;0.90;;
803;SDS011;25687;49.976;8.240;2023-07-29T09:13:03;1.10;;;0.93;;
803;SDS011;25687;49.976;8.240;2023-07-29T09:15:33;0.88;;;0.88;;
803;SDS011;25687;49.976;8.240;2023-07-29T09:18:10;1.63;;;1.35;;
803;SDS011;25687;49.976;8.240;2023-07-29T09:20:37;3.10;;;1.10;;
803;SDS011;25687;49.976;8.240;2023-07-29T09:23:02;1.20;;;0.95;;
803;SDS011;25687;49.976;8.240;2023-07-29T09:25:28;1.17;;;1.05;;
803;SDS011;25687;49.976;8.240;2023-07-29T09:28:01;1.30;;;0.80;;
803;SDS011;25687;49.976;8.240;2023-07-29T09:30:27;1.10;;;0.95;;
803;SDS011;25687;49.976;8.240;2023-07-29T09:32:59;2.22;;;1.00;;
803;SDS011;25687;49.976;8.240;2023-07-29T09:35:28;2.97;;;1.00;;
803;SDS011;25687;49.976;8.240;2023-07-29T09:37:55;2.08;;;0.80;;
803;SDS011;25687;49.976;8.240;2023-07-29T09:40:20;4.13;;;1.02;;
803;SDS011;25687;49.976;8.240;2023-07-29T09:42:49;1.25;;;0.80;;
803;SDS011;25687;49.976;8.240;2023-07-29T09:45:22;0.80;;;0.80;;
803;SDS011;25687;49.976;8.240;2023-07-29T09:47:49;0.90;;;0.90;;
803;SDS011;25687;49.976;8.240;2023-07-29T09:50:14;1.52;;;1.40;;
803;SDS011;25687;49.976;8.240;2023-07-29T09:52:40;0.98;;;0.82;;
803;SDS011;25687;49.976;8.240;2023-07-29T09:55:06;1.30;;;1.13;;
803;SDS011;25687;49.976;8.240;2023-07-29T09:57:32;3.13;;;1.33;;
803;SDS011;25687;49.976;8.240;2023-07-29T09:59:57;1.05;;;0.93;;
803;SDS011;25687;49.976;8.240;2023-07-29T10:02:23;2.67;;;1.15;;
803;SDS011;25687;49.976;8.240;2023-07-29T10:04:50;1.85;;;0.90;;
803;SDS011;25687;49.976;8.240;2023-07-29T10:07:17;1.80;;;1.10;;
803;SDS011;25687;49.976;8.240;2023-07-29T10:09:44;3.42;;;1.45;;
803;SDS011;25687;49.976;8.240;2023-07-29T10:12:10;4.05;;;1.05;;
803;SDS011;25687;49.976;8.240;2023-07-29T10:14:36;2.22;;;1.10;;
803;SDS011;25687;49.976;8.240;2023-07-29T10:17:03;1.75;;;1.00;;
803;SDS011;25687;49.976;8.240;2023-07-29T10:19:30;2.90;;;1.20;;
803;SDS011;25687;49.976;8.240;2023-07-29T10:21:56;1.23;;;1.08;;
803;SDS011;25687;49.976;8.240;2023-07-29T10:24:24;1.80;;;0.95;;
803;SDS011;25687;49.976;8.240;2023-07-29T10:26:57;1.40;;;1.30;;
803;SDS011;25687;49.976;8.240;2023-07-29T10:29:23;1.10;;;1.10;;
803;SDS011;25687;49.976;8.240;2023-07-29T10:31:52;1.33;;;1.23;;
803;SDS011;25687;49.976;8.240;2023-07-29T10:34:18;1.52;;;1.30;;
803;SDS011;25687;49.976;8.240;2023-07-29T10:36:45;1.33;;;1.10;;
803;SDS011;25687;49.976;8.240;2023-07-29T10:39:11;2.25;;;1.38;;
803;SDS011;25687;49.976;8.240;2023-07-29T10:41:53;2.67;;;1.50;;
803;SDS011;25687;49.976;8.240;2023-07-29T10:47:13;3.25;;;1.60;;
803;SDS011;25687;49.976;8.240;2023-07-29T10:49:42;3.63;;;1.90;;
803;SDS011;25687;49.976;8.240;2023-07-29T10:54:59;1.52;;;1.40;;
803;SDS011;25687;49.976;8.240;2023-07-29T10:59:57;1.80;;;1.45;;
803;SDS011;25687;49.976;8.240;2023-07-29T11:02:30;2.00;;;1.50;;
803;SDS011;25687;49.976;8.240;2023-07-29T11:05:06;1.65;;;1.30;;
803;SDS011;25687;49.976;8.240;2023-07-29T11:07:42;1.23;;;1.13;;
803;SDS011;25687;49.976;8.240;2023-07-29T11:10:09;1.60;;;1.50;;
803;SDS011;25687;49.976;8.240;2023-07-29T11:12:41;1.17;;;1.02;;
803;SDS011;25687;49.976;8.240;2023-07-29T11:15:16;2.08;;;1.20;;
803;SDS011;25687;49.976;8.240;2023-07-29T11:17:50;1.50;;;1.35;;
803;SDS011;25687;49.976;8.240;2023-07-29T11:20:18;2.30;;;1.30;;
803;SDS011;25687;49.976;8.240;2023-07-29T11:22:45;1.67;;;1.40;;
803;SDS011;25687;49.976;8.240;2023-07-29T11:25:12;2.25;;;1.40;;
803;SDS011;25687;49.976;8.240;2023-07-29T11:27:39;2.05;;;1.10;;
803;SDS011;25687;49.976;8.240;2023-07-29T11:30:05;2.88;;;1.38;;
803;SDS011;25687;49.976;8.240;2023-07-29T11:32:33;1.35;;;1.10;;
803;SDS011;25687;49.976;8.240;2023-07-29T11:35:07;1.25;;;1.17;;
803;SDS011;25687;49.976;8.240;2023-07-29T11:37:34;1.30;;;1.20;;
803;SDS011;25687;49.976;8.240;2023-07-29T11:40:01;2.05;;;1.23;;
803;SDS011;25687;49.976;8.240;2023-07-29T11:42:27;2.35;;;1.20;;
803;SDS011;25687;49.976;8.240;2023-07-29T11:44:53;2.10;;;1.52;;
803;SDS011;25687;49.976;8.240;2023-07-29T11:47:18;1.60;;;1.40;;
803;SDS011;25687;49.976;8.240;2023-07-29T11:49:44;1.38;;;1.20;;
803;SDS011;25687;49.976;8.240;2023-07-29T11:52:10;3.10;;;1.58;;
803;SDS011;25687;49.976;8.240;2023-07-29T11:54:36;1.70;;;1.20;;
803;SDS011;25687;49.976;8.240;2023-07-29T11:57:03;3.63;;;1.60;;
803;SDS011;25687;49.976;8.240;2023-07-29T11:59:30;1.20;;;1.08;;
803;SDS011;25687;49.976;8.240;2023-07-29T12:01:57;3.90;;;1.88;;
803;SDS011;25687;49.976;8.240;2023-07-29T12:04:25;2.22;;;1.50;;
803;SDS011;25687;49.976;8.240;2023-07-29T12:06:50;1.48;;;1.38;;
803;SDS011;25687;49.976;8.240;2023-07-29T12:09:16;1.42;;;1.33;;
803;SDS011;25687;49.976;8.240;2023-07-29T12:11:41;1.98;;;1.30;;
803;SDS011;25687;49.976;8.240;2023-07-29T12:14:07;1.45;;;1.33;;
803;SDS011;25687;49.976;8.240;2023-07-29T12:16:39;1.50;;;1.40;;
803;SDS011;25687;49.976;8.240;2023-07-29T12:19:05;2.22;;;1.40;;
803;SDS011;25687;49.976;8.240;2023-07-29T12:21:31;1.45;;;1.35;;
803;SDS011;25687;49.976;8.240;2023-07-29T12:23:56;2.22;;;1.23;;
803;SDS011;25687;49.976;8.240;2023-07-29T12:26:21;1.15;;;1.05;;
803;SDS011;25687;49.976;8.240;2023-07-29T12:28:52;1.95;;;1.38;;
803;SDS011;25687;49.976;8.240;2023-07-29T12:31:17;1.55;;;1.20;;
803;SDS011;25687;49.976;8.240;2023-07-29T12:33:43;1.83;;;1.08;;
803;SDS011;25687;49.976;8.240;2023-07-29T12:36:08;1.13;;;1.08;;
803;SDS011;25687;49.976;8.240;2023-07-29T12:38:35;1.92;;;1.30;;
803;SDS011;25687;49.976;8.240;2023-07-29T12:41:00;2.08;;;1.23;;
803;SDS011;25687;49.976;8.240;2023-07-29T12:43:26;1.67;;;1.08;;
803;SDS011;25687;49.976;8.240;2023-07-29T12:45:51;1.33;;;1.20;;
803;SDS011;25687;49.976;8.240;2023-07-29T12:48:17;2.28;;;1.13;;
803;SDS011;25687;49.976;8.240;2023-07-29T12:50:42;1.20;;;1.20;;
803;SDS011;25687;49.976;8.240;2023-07-29T12:53:08;9.48;;;1.20;;
803;SDS011;25687;49.976;8.240;2023-07-29T12:55:37;1.48;;;1.10;;
803;SDS011;25687;49.976;8.240;2023-07-29T12:58:03;2.30;;;1.30;;
803;SDS011;25687;49.976;8.240;2023-07-29T13:00:29;1.35;;;1.25;;
803;SDS011;25687;49.976;8.240;2023-07-29T13:02:54;3.25;;;1.33;;
803;SDS011;25687;49.976;8.240;2023-07-29T13:05:19;4.20;;;1.35;;
803;SDS011;25687;49.976;8.240;2023-07-29T13:07:45;1.40;;;1.30;;
803;SDS011;25687;49.976;8.240;2023-07-29T13:10:11;3.45;;;1.50;;
803;SDS011;25687;49.976;8.240;2023-07-29T13:12:36;1.88;;;1.20;;
803;SDS011;25687;49.976;8.240;2023-07-29T13:15:02;1.20;;;1.10;;
803;SDS011;25687;49.976;8.240;2023-07-29T13:17:27;1.30;;;1.20;;
803;SDS011;25687;49.976;8.240;2023-07-29T13:19:53;1.30;;;1.20;;
803;SDS011;25687;49.976;8.240;2023-07-29T13:22:19;1.15;;;1.10;;
803;SDS011;25687;49.976;8.240;2023-07-29T13:24:45;1.40;;;1.30;;
803;SDS011;25687;49.976;8.240;2023-07-29T13:27:10;1.20;;;1.10;;
803;SDS011;25687;49.976;8.240;2023-07-29T13:29:36;4.05;;;1.20;;
803;SDS011;25687;49.976;8.240;2023-07-29T13:32:01;1.50;;;1.40;;
803;SDS011;25687;49.976;8.240;2023-07-29T13:34:26;2.85;;;1.52;;
803;SDS011;25687;49.976;8.240;2023-07-29T13:36:51;2.25;;;1.40;;
803;SDS011;25687;49.976;8.240;2023-07-29T13:39:18;1.35;;;1.20;;
803;SDS011;25687;49.976;8.240;2023-07-29T13:41:43;1.95;;;1.27;;
803;SDS011;25687;49.976;8.240;2023-07-29T13:44:08;1.55;;;1.10;;
803;SDS011;25687;49.976;8.240;2023-07-29T13:46:33;1.42;;;1.33;;
803;SDS011;25687;49.976;8.240;2023-07-29T13:48:59;2.42;;;1.40;;
803;SDS011;25687;49.976;8.240;2023-07-29T13:51:24;3.25;;;1.42;;
803;SDS011;25687;49.976;8.240;2023-07-29T13:53:49;1.48;;;1.38;;
803;SDS011;25687;49.976;8.240;2023-07-29T13:56:14;2.75;;;1.38;;
803;SDS011;25687;49.976;8.240;2023-07-29T13:58:40;3.92;;;1.40;;
803;SDS011;25687;49.976;8.240;2023-07-29T14:01:05;2.97;;;1.50;;
803;SDS011;25687;49.976;8.240;2023-07-29T14:03:31;1.17;;;1.08;;
803;SDS011;25687;49.976;8.240;2023-07-29T14:05:56;2.78;;;1.42;;
803;SDS011;25687;49.976;8.240;2023-07-29T14:08:21;2.00;;;1.40;;
803;SDS011;25687;49.976;8.240;2023-07-29T14:10:49;1.60;;;1.50;;
803;SDS011;25687;49.976;8.240;2023-07-29T14:13:14;3.08;;;1.33;;
803;SDS011;25687;49.976;8.240;2023-07-29T14:15:40;1.40;;;1.30;;
803;SDS011;25687;49.976;8.240;2023-07-29T14:18:05;1.95;;;1.60;;
803;SDS011;25687;49.976;8.240;2023-07-29T14:20:31;2.67;;;1.40;;
803;SDS011;25687;49.976;8.240;2023-07-29T14:22:57;1.92;;;1.25;;
803;SDS011;25687;49.976;8.240;2023-07-29T14:25:22;4.32;;;1.40;;
803;SDS011;25687;49.976;8.240;2023-07-29T14:27:47;3.80;;;1.60;;
803;SDS011;25687;49.976;8.240;2023-07-29T14:30:12;1.48;;;1.38;;
803;SDS011;25687;49.976;8.240;2023-07-29T14:32:38;1.80;;;1.40;;
803;SDS011;25687;49.976;8.240;2023-07-29T14:35:03;1.48;;;1.38;;
803;SDS011;25687;49.976;8.240;2023-07-29T14:37:31;1.75;;;1.60;;
803;SDS011;25687;49.976;8.240;2023-07-29T14:39:57;4.30;;;1.25;;
803;SDS011;25687;49.976;8.240;2023-07-29T14:42:23;1.30;;;1.20;;
803;SDS011;25687;49.976;8.240;2023-07-29T14:44:48;2.00;;;1.50;;
803;SDS011;25687;49.976;8.240;2023-07-29T14:47:14;1.67;;;1.58;;
803;SDS011;25687;49.976;8.240;2023-07-29T14:49:39;3.33;;;1.20;;
803;SDS011;25687;49.976;8.240;2023-07-29T14:52:05;1.50;;;1.40;;
803;SDS011;25687;49.976;8.240;2023-07-29T14:54:31;1.77;;;1.20;;
803;SDS011;25687;49.976;8.240;2023-07-29T14:56:56;1.38;;;1.10;;
803;SDS011;25687;49.976;8.240;2023-07-29T14:59:21;1.95;;;1.15;;
803;SDS011;25687;49.976;8.240;2023-07-29T15:01:47;1.52;;;1.42;;
803;SDS011;25687;49.976;8.240;2023-07-29T15:04:12;1.13;;;1.13;;
803;SDS011;25687;49.976;8.240;2023-07-29T15:06:37;1.45;;;1.35;;
803;SDS011;25687;49.976;8.240;2023-07-29T15:09:03;1.80;;;1.40;;
803;SDS011;25687;49.976;8.240;2023-07-29T15:11:30;1.63;;;1.30;;
803;SDS011;25687;49.976;8.240;2023-07-29T15:13:57;2.67;;;1.23;;
803;SDS011;25687;49.976;8.240;2023-07-29T15:16:23;3.75;;;1.38;;
803;SDS011;25687;49.976;8.240;2023-07-29T15:18:49;1.52;;;1.23;;
803;SDS011;25687;49.976;8.240;2023-07-29T15:21:14;2.65;;;1.40;;